createdAt,value
2022-08-08T00:00:56.445Z,42.50
2022-08-08T00:02:57.089Z,42.90
2022-08-08T00:06:03.915Z,43.00
2022-08-08T00:08:53.254Z,42.90
2022-08-08T00:11:25.799Z,43.50
2022-08-08T00:15:17.531Z,43.40
2022-08-08T00:18:04.686Z,42.90
2022-08-08T00:20:38.596Z,43.10
2022-08-08T00:23:15.436Z,43.40
2022-08-08T00:25:51.198Z,43.50
2022-08-08T00:28:34.457Z,43.30
2022-08-08T00:32:28.647Z,43.00
2022-08-08T00:34:53.448Z,43.70
2022-08-08T00:37:46.847Z,43.10
2022-08-08T00:41:12.291Z,43.60
2022-08-08T00:43:58.823Z,44.30
2022-08-08T00:46:57.695Z,43.80
2022-08-08T00:50:00.637Z,44.50
2022-08-08T00:52:45.608Z,44.50
2022-08-08T00:55:54.686Z,44.70
2022-08-08T00:59:44.345Z,44.30
2022-08-08T01:03:16.212Z,44.40
2022-08-08T01:06:00.832Z,44.80
2022-08-08T01:08:52.308Z,44.20
2022-08-08T01:11:58.822Z,44.60
2022-08-08T01:14:53.700Z,44.50
2022-08-08T01:17:55.652Z,44.70
2022-08-08T01:20:55.628Z,45.10
2022-08-08T01:24:05.270Z,44.70
2022-08-08T01:27:10.863Z,45.10
2022-08-08T01:30:07.733Z,44.30
2022-08-08T01:32:54.475Z,44.30
2022-08-08T01:35:29.772Z,44.40
2022-08-08T01:38:06.801Z,44.40
2022-08-08T01:41:11.557Z,44.00
2022-08-08T01:44:05.219Z,44.20
2022-08-08T01:46:38.474Z,43.70
2022-08-08T01:49:23.429Z,43.60
2022-08-08T01:54:18.302Z,43.50
2022-08-08T01:56:27.306Z,43.40
2022-08-08T01:58:32.260Z,43.10
2022-08-08T02:01:15.780Z,43.20
2022-08-08T02:04:02.305Z,43.10
2022-08-08T02:06:54.567Z,43.50
2022-08-08T02:10:03.898Z,43.40
2022-08-08T02:12:48.393Z,43.40
2022-08-08T02:15:39.545Z,43.40
2022-08-08T02:18:39.583Z,43.10
2022-08-08T02:21:43.588Z,43.10
2022-08-08T02:24:23.877Z,43.10
2022-08-08T02:27:14.374Z,43.70
2022-08-08T02:30:03.311Z,43.60
2022-08-08T02:32:56.295Z,43.80
2022-08-08T02:35:35.720Z,43.90
2022-08-08T02:38:30.061Z,44.20
2022-08-08T02:41:17.980Z,44.20
2022-08-08T02:44:37.769Z,44.20
2022-08-08T02:47:51.950Z,44.50
2022-08-08T02:51:07.099Z,44.50
2022-08-08T02:54:00.436Z,44.20
2022-08-08T02:56:58.090Z,44.80
2022-08-08T02:59:58.200Z,44.70
2022-08-08T03:02:39.723Z,44.80
2022-08-08T03:05:23.282Z,45.00
2022-08-08T03:07:58.502Z,45.30
2022-08-08T03:10:53.874Z,45.20
2022-08-08T03:16:01.148Z,45.40
2022-08-08T03:16:54.786Z,45.10
2022-08-08T03:19:27.818Z,45.40
2022-08-08T03:21:59.658Z,45.20
2022-08-08T03:24:27.198Z,45.40
2022-08-08T03:27:43.351Z,45.00
2022-08-08T03:30:18.983Z,45.10
2022-08-08T03:33:07.927Z,45.30
2022-08-08T03:35:53.469Z,45.90
2022-08-08T03:38:54.647Z,45.30
2022-08-08T03:42:12.520Z,45.20
2022-08-08T03:43:59.714Z,45.70
2022-08-08T03:46:32.600Z,45.50
2022-08-08T03:49:09.335Z,45.60
2022-08-08T03:51:56.619Z,45.70
2022-08-08T03:54:51.998Z,45.20
2022-08-08T03:58:31.720Z,45.60
2022-08-08T04:00:07.871Z,45.40
2022-08-08T04:02:47.470Z,45.60
2022-08-08T04:05:28.538Z,45.40
2022-08-08T04:07:56.618Z,45.70
2022-08-08T04:10:32.181Z,45.50
2022-08-08T04:13:00.724Z,45.40
2022-08-08T04:15:38.886Z,44.90
2022-08-08T04:18:06.397Z,45.60
2022-08-08T04:20:36.483Z,45.50
2022-08-08T04:23:07.086Z,45.10
2022-08-08T04:25:38.252Z,45.20
2022-08-08T04:28:37.258Z,44.90
2022-08-08T04:30:55.220Z,45.30
2022-08-08T04:33:24.393Z,45.00
2022-08-08T04:35:54.267Z,45.20
2022-08-08T04:38:23.213Z,44.40
2022-08-08T04:40:51.380Z,44.60
2022-08-08T04:43:22.103Z,44.40
2022-08-08T04:45:50.900Z,44.70
2022-08-08T04:48:20.116Z,44.20
2022-08-08T04:50:49.294Z,43.90
2022-08-08T04:54:37.258Z,44.30
2022-08-08T04:56:04.771Z,44.00
2022-08-08T04:58:33.048Z,43.60
2022-08-08T05:01:00.335Z,43.30
2022-08-08T05:04:08.304Z,43.10
2022-08-08T05:06:27.949Z,43.10
2022-08-08T05:08:56.416Z,42.90
2022-08-08T05:11:30.386Z,42.70
2022-08-08T05:14:08.276Z,42.80
2022-08-08T05:16:53.748Z,42.10
2022-08-08T05:20:09.477Z,42.00
2022-08-08T05:22:10.652Z,41.60
2022-08-08T05:24:38.621Z,41.10
2022-08-08T05:27:06.442Z,41.10
2022-08-08T05:29:35.786Z,41.80
2022-08-08T05:32:07.760Z,41.10
2022-08-08T05:34:46.374Z,41.30
2022-08-08T05:37:39.491Z,40.70
2022-08-08T05:40:14.640Z,40.50
2022-08-08T05:42:46.118Z,40.80
2022-08-08T05:45:31.414Z,39.70
2022-08-08T05:48:08.917Z,39.60
2022-08-08T05:50:38.734Z,40.10
2022-08-08T05:53:54.321Z,40.00
2022-08-08T05:56:10.393Z,39.40
2022-08-08T05:58:57.566Z,39.70
2022-08-08T06:01:55.471Z,39.40
2022-08-08T06:04:24.318Z,38.00
2022-08-08T06:06:53.233Z,37.90
2022-08-08T06:09:58.361Z,37.20
2022-08-08T06:12:18.645Z,37.30
2022-08-08T06:14:58.021Z,36.90
2022-08-08T06:17:51.586Z,37.30
2022-08-08T06:20:13.708Z,36.90
2022-08-08T06:22:43.602Z,36.30
2022-08-08T06:25:11.927Z,36.60
2022-08-08T06:27:56.367Z,35.40
2022-08-08T06:30:28.413Z,35.10
2022-08-08T06:32:57.936Z,34.70
2022-08-08T06:36:07.566Z,34.80
2022-08-08T06:38:27.802Z,34.30
2022-08-08T06:41:05.990Z,33.90
2022-08-08T06:43:39.590Z,33.50
2022-08-08T06:46:09.234Z,33.30
2022-08-08T06:48:39.778Z,33.70
2022-08-08T06:51:11.211Z,33.20
2022-08-08T06:53:39.452Z,33.40
2022-08-08T06:56:09.049Z,32.40
2022-08-08T06:58:37.007Z,32.50
2022-08-08T07:01:52.519Z,32.90
2022-08-08T07:04:38.021Z,33.60
2022-08-08T07:07:00.759Z,33.30
2022-08-08T07:09:56.538Z,33.20
2022-08-08T07:12:38.081Z,34.30
2022-08-08T07:15:23.186Z,33.90
2022-08-08T07:18:01.995Z,33.40
2022-08-08T07:20:51.673Z,32.10
2022-08-08T07:23:57.695Z,31.90
2022-08-08T07:26:35.628Z,31.30
2022-08-08T07:29:05.810Z,31.60
2022-08-08T07:31:36.733Z,31.20
2022-08-08T07:34:08.752Z,31.00
2022-08-08T07:36:41.916Z,29.50
2022-08-08T07:39:29.606Z,29.70
2022-08-08T07:42:18.864Z,30.10
2022-08-08T07:44:48.060Z,29.70
2022-08-08T07:47:18.211Z,29.70
2022-08-08T07:49:57.513Z,29.10
2022-08-08T07:52:27.261Z,29.30
2022-08-08T07:55:29.820Z,29.00
2022-08-08T07:58:12.775Z,29.60
2022-08-08T08:00:44.577Z,29.40
2022-08-08T08:03:20.623Z,28.90
2022-08-08T08:05:53.283Z,29.00
2022-08-08T08:08:26.422Z,29.50
2022-08-08T08:10:57.743Z,30.20
2022-08-08T08:14:06.135Z,30.60
2022-08-08T08:16:39.784Z,31.40
2022-08-08T08:19:14.770Z,31.40
2022-08-08T08:21:57.249Z,31.80
2022-08-08T08:24:30.437Z,30.70
2022-08-08T08:26:59.871Z,31.50
2022-08-08T08:29:29.989Z,30.80
2022-08-08T08:31:59.310Z,30.90
2022-08-08T08:34:33.738Z,31.30
2022-08-08T08:37:07.661Z,30.80
2022-08-08T08:40:00.569Z,31.50
2022-08-08T08:42:29.322Z,31.30
2022-08-08T08:45:21.239Z,31.80
2022-08-08T08:47:53.250Z,34.10
2022-08-08T08:50:33.634Z,37.00
2022-08-08T08:53:27.512Z,36.60
2022-08-08T08:56:01.343Z,38.10
2022-08-08T08:58:41.400Z,39.30
2022-08-08T09:01:13.149Z,38.90
2022-08-08T09:03:46.937Z,39.80
2022-08-08T09:06:33.753Z,39.30
2022-08-08T09:09:35.482Z,39.50
2022-08-08T09:12:10.973Z,39.90
2022-08-08T09:14:42.295Z,39.40
2022-08-08T09:17:18.253Z,39.90
2022-08-08T09:21:57.826Z,38.20
2022-08-08T09:22:35.708Z,37.90
2022-08-08T09:25:04.666Z,38.40
2022-08-08T09:27:55.830Z,37.50
2022-08-08T09:30:20.115Z,38.00
2022-08-08T09:33:12.148Z,38.30
2022-08-08T09:35:49.559Z,38.30
2022-08-08T09:38:52.751Z,37.40
2022-08-08T09:42:14.628Z,37.10
2022-08-08T09:44:50.873Z,37.90
2022-08-08T09:48:02.323Z,37.30
2022-08-08T09:50:22.977Z,36.50
2022-08-08T09:52:56.075Z,36.20
2022-08-08T09:55:51.235Z,37.00
2022-08-08T09:58:33.179Z,37.30
2022-08-08T10:01:14.230Z,36.50
2022-08-08T10:04:02.308Z,36.20
2022-08-08T10:06:35.661Z,36.80
2022-08-08T10:09:04.880Z,36.40
2022-08-08T10:12:27.834Z,36.10
2022-08-08T10:14:38.717Z,36.40
2022-08-08T10:17:38.667Z,36.60
2022-08-08T10:20:00.172Z,37.00
2022-08-08T10:22:33.991Z,37.80
2022-08-08T10:25:05.769Z,38.30
2022-08-08T10:27:42.776Z,38.70
2022-08-08T10:30:16.582Z,38.40
2022-08-08T10:33:00.241Z,38.70
2022-08-08T10:36:09.452Z,38.30
2022-08-08T10:38:20.991Z,38.30
2022-08-08T10:40:53.193Z,38.00
2022-08-08T10:43:22.210Z,37.80
2022-08-08T10:45:56.137Z,37.50
2022-08-08T10:48:57.512Z,36.20
2022-08-08T10:51:26.076Z,35.90
2022-08-08T10:53:57.298Z,35.20
2022-08-08T10:56:34.764Z,35.10
2022-08-08T10:59:09.700Z,33.90
2022-08-08T11:01:39.378Z,33.00
2022-08-08T11:04:10.381Z,33.40
2022-08-08T11:06:41.737Z,33.20
2022-08-08T11:09:19.308Z,32.30
2022-08-08T11:12:05.023Z,32.20
2022-08-08T11:14:35.496Z,32.40
2022-08-08T11:17:03.887Z,32.40
2022-08-08T11:19:33.747Z,31.90
2022-08-08T11:22:03.962Z,31.30
2022-08-08T11:24:35.846Z,31.30
2022-08-08T11:27:19.335Z,32.00
2022-08-08T11:30:04.117Z,30.90
2022-08-08T11:32:41.778Z,30.20
2022-08-08T11:35:27.352Z,30.50
2022-08-08T11:38:39.149Z,30.40
2022-08-08T11:40:51.233Z,30.40
2022-08-08T11:43:19.667Z,29.80
2022-08-08T11:46:13.785Z,30.00
2022-08-08T11:48:42.121Z,29.40
2022-08-08T11:51:38.064Z,29.20
2022-08-08T11:54:02.384Z,29.40
2022-08-08T11:56:35.739Z,28.40
2022-08-08T11:59:10.846Z,28.70
2022-08-08T12:01:38.747Z,28.40
2022-08-08T12:04:10.878Z,27.90
2022-08-08T12:06:39.409Z,27.90
2022-08-08T12:09:09.235Z,27.20
2022-08-08T12:11:41.536Z,27.30
2022-08-08T12:14:11.649Z,27.20
2022-08-08T12:16:49.380Z,25.70
2022-08-08T12:19:31.173Z,24.40
2022-08-08T12:22:12.758Z,24.60
2022-08-08T12:24:48.443Z,24.70
2022-08-08T12:27:20.659Z,24.40
2022-08-08T12:30:01.924Z,22.00
2022-08-08T12:32:31.182Z,23.60
2022-08-08T12:35:13.009Z,22.80
2022-08-08T12:38:01.248Z,23.60
2022-08-08T12:40:56.390Z,24.60
2022-08-08T12:43:43.472Z,24.60
2022-08-08T12:46:19.428Z,25.20
2022-08-08T12:49:20.692Z,25.30
2022-08-08T12:51:49.875Z,25.70
2022-08-08T12:54:37.528Z,26.30
2022-08-08T12:57:17.290Z,26.40
2022-08-08T13:00:03.595Z,26.40
2022-08-08T13:02:35.871Z,26.40
2022-08-08T13:05:26.002Z,26.20
2022-08-08T13:08:02.170Z,26.10
2022-08-08T13:10:36.521Z,26.50
2022-08-08T13:13:27.891Z,25.90
2022-08-08T13:15:56.223Z,25.90
2022-08-08T13:18:27.425Z,26.00
2022-08-08T13:20:56.068Z,26.10
2022-08-08T13:23:36.545Z,25.40
2022-08-08T13:26:13.284Z,25.20
2022-08-08T13:28:42.226Z,24.40
2022-08-08T13:31:16.656Z,24.00
2022-08-08T13:33:47.362Z,23.90
2022-08-08T13:36:17.495Z,23.70
2022-08-08T13:38:52.698Z,23.10
2022-08-08T13:41:19.775Z,22.10
2022-08-08T13:43:50.866Z,22.20
2022-08-08T13:46:28.283Z,21.80
2022-08-08T13:50:33.466Z,20.40
2022-08-08T13:51:55.109Z,20.10
2022-08-08T13:54:29.506Z,20.50
2022-08-08T13:57:08.745Z,20.00
2022-08-08T13:59:44.409Z,19.90
2022-08-08T14:02:21.524Z,20.20
2022-08-08T14:05:05.005Z,18.60
2022-08-08T14:07:52.358Z,19.20
2022-08-08T14:10:36.685Z,18.10
2022-08-08T14:13:30.809Z,18.40
2022-08-08T14:16:08.010Z,18.40
2022-08-08T14:18:58.898Z,18.40
2022-08-08T14:21:40.740Z,18.40
2022-08-08T14:24:32.450Z,18.40
2022-08-08T14:26:59.434Z,17.70
2022-08-08T14:29:30.580Z,17.50
2022-08-08T14:32:10.003Z,17.90
2022-08-08T14:34:42.885Z,17.60
2022-08-08T14:37:13.102Z,18.00
2022-08-08T14:40:05.836Z,18.50
2022-08-08T14:42:54.794Z,18.10
2022-08-08T14:45:46.934Z,18.70
2022-08-08T14:48:16.489Z,17.50
2022-08-08T14:50:47.120Z,16.00
2022-08-08T14:53:15.325Z,17.50
2022-08-08T14:55:43.268Z,17.40
2022-08-08T14:58:11.942Z,17.00
2022-08-08T15:00:45.064Z,16.50
2022-08-08T15:03:15.999Z,16.50
2022-08-08T15:05:53.274Z,16.40
2022-08-08T15:08:33.908Z,16.80
2022-08-08T15:11:04.626Z,16.80
2022-08-08T15:13:40.119Z,16.60
2022-08-08T15:16:20.397Z,16.40
2022-08-08T15:18:51.416Z,16.80
2022-08-08T15:21:20.769Z,16.80
2022-08-08T15:23:50.885Z,16.10
2022-08-08T15:26:19.995Z,15.90
2022-08-08T15:28:52.992Z,15.10
2022-08-08T15:31:55.670Z,15.40
2022-08-08T15:34:06.934Z,15.50
2022-08-08T15:36:35.818Z,14.70
2022-08-08T15:39:04.043Z,14.90
2022-08-08T15:41:37.009Z,14.90
2022-08-08T15:44:13.351Z,13.80
2022-08-08T15:46:45.468Z,14.00
2022-08-08T15:49:17.492Z,14.60
2022-08-08T15:51:49.893Z,14.20
2022-08-08T15:54:18.916Z,13.90
2022-08-08T15:57:07.506Z,14.40
2022-08-08T16:00:06.362Z,15.10
2022-08-08T16:02:21.960Z,15.40
2022-08-08T16:04:58.475Z,15.80
2022-08-08T16:07:51.433Z,16.00
2022-08-08T16:13:20.912Z,15.00
2022-08-08T16:13:27.551Z,15.00
2022-08-08T16:15:58.207Z,15.10
2022-08-08T16:21:26.847Z,15.50
2022-08-08T16:23:55.857Z,14.90
2022-08-08T16:26:34.331Z,15.20
2022-08-08T16:29:07.053Z,15.10
2022-08-08T16:31:37.685Z,15.60
2022-08-08T16:34:04.856Z,15.30
2022-08-08T16:36:34.081Z,15.20
2022-08-08T16:39:09.664Z,14.60
2022-08-08T16:41:51.169Z,15.90
2022-08-08T16:44:28.153Z,16.20
2022-08-08T16:47:40.431Z,16.40
2022-08-08T16:50:15.597Z,17.00
2022-08-08T16:55:23.250Z,17.80
2022-08-08T16:55:54.482Z,17.80
2022-08-08T16:58:20.454Z,18.20
2022-08-08T17:00:48.886Z,18.80
2022-08-08T17:03:24.989Z,20.00
2022-08-08T17:06:06.062Z,20.60
2022-08-08T17:08:52.950Z,21.50
2022-08-08T17:11:19.871Z,22.20
2022-08-08T17:14:00.782Z,21.90
2022-08-08T17:16:28.970Z,22.20
2022-08-08T17:18:56.114Z,21.80
2022-08-08T17:21:26.137Z,21.60
2022-08-08T17:24:00.574Z,22.00
2022-08-08T17:26:29.820Z,21.90
2022-08-08T17:28:58.601Z,21.80
2022-08-08T17:31:45.761Z,21.50
2022-08-08T17:34:36.255Z,21.10
2022-08-08T17:37:03.273Z,21.00
2022-08-08T17:40:04.298Z,20.50
2022-08-08T17:42:20.732Z,20.60
2022-08-08T17:44:51.073Z,20.00
2022-08-08T17:47:27.662Z,19.70
2022-08-08T17:50:01.279Z,19.90
2022-08-08T17:52:33.396Z,20.30
2022-08-08T17:55:05.710Z,20.30
2022-08-08T17:57:48.479Z,20.80
2022-08-08T18:00:19.708Z,20.70
2022-08-08T18:03:07.683Z,20.60
2022-08-08T18:05:47.938Z,21.50
2022-08-08T18:08:24.901Z,21.30
2022-08-08T18:11:22.564Z,21.90
2022-08-08T18:13:49.377Z,22.00
2022-08-08T18:16:16.932Z,22.60
2022-08-08T18:18:52.920Z,22.40
2022-08-08T18:21:25.177Z,22.40
2022-08-08T18:24:03.420Z,22.00
2022-08-08T18:26:30.277Z,23.30
2022-08-08T18:28:57.616Z,24.00
2022-08-08T18:31:25.061Z,24.40
2022-08-08T18:34:25.603Z,24.90
2022-08-08T18:36:41.625Z,25.50
2022-08-08T18:39:27.345Z,26.20
2022-08-08T18:42:03.097Z,26.10
2022-08-08T18:44:34.817Z,26.60
2022-08-08T18:47:03.676Z,26.60
2022-08-08T18:49:32.403Z,26.80
2022-08-08T18:52:22.357Z,26.90
2022-08-08T18:54:59.632Z,27.60
2022-08-08T18:57:31.694Z,27.10
2022-08-08T19:00:06.709Z,27.30
2022-08-08T19:02:37.674Z,27.70
2022-08-08T19:05:15.527Z,27.60
2022-08-08T19:07:52.385Z,27.60
2022-08-08T19:10:19.513Z,27.90
2022-08-08T19:12:53.049Z,28.20
2022-08-08T19:15:21.639Z,28.20
2022-08-08T19:18:31.186Z,28.30
2022-08-08T19:20:43.063Z,28.20
2022-08-08T19:23:13.871Z,28.40
2022-08-08T19:26:26.911Z,28.90
2022-08-08T19:28:33.333Z,29.40
2022-08-08T19:31:09.312Z,29.10
2022-08-08T19:33:52.379Z,29.30
2022-08-08T19:36:27.606Z,29.20
2022-08-08T19:38:56.354Z,29.60
2022-08-08T19:41:29.212Z,29.60
2022-08-08T19:44:02.984Z,29.70
2022-08-08T19:46:33.689Z,29.70
2022-08-08T19:49:03.170Z,29.70
2022-08-08T19:51:34.466Z,30.00
2022-08-08T19:54:07.421Z,29.90
2022-08-08T19:56:40.238Z,30.30
2022-08-08T19:59:09.105Z,29.90
2022-08-08T20:01:50.413Z,30.30
2022-08-08T20:04:23.979Z,30.40
2022-08-08T20:06:51.069Z,30.50
2022-08-08T20:09:22.681Z,31.00
2022-08-08T20:11:50.183Z,30.80
2022-08-08T20:14:33.372Z,30.90
2022-08-08T20:17:02.857Z,31.70
2022-08-08T20:19:34.238Z,31.50
2022-08-08T20:22:13.282Z,31.90
2022-08-08T20:24:47.657Z,31.80
2022-08-08T20:27:20.665Z,31.40
2022-08-08T20:30:00.477Z,31.90
2022-08-08T20:32:29.710Z,31.20
2022-08-08T20:35:01.227Z,32.50
2022-08-08T20:37:52.803Z,32.60
2022-08-08T20:40:17.050Z,32.50
2022-08-08T20:42:55.259Z,32.70
2022-08-08T20:45:54.825Z,32.40
2022-08-08T20:48:09.797Z,32.60
2022-08-08T20:50:37.593Z,32.90
2022-08-08T20:53:06.805Z,33.10
2022-08-08T20:55:43.146Z,32.70
2022-08-08T20:58:22.857Z,33.00
2022-08-08T21:00:50.530Z,34.10
2022-08-08T21:03:17.532Z,34.30
2022-08-08T21:05:49.332Z,34.40
2022-08-08T21:08:36.236Z,34.80
2022-08-08T21:11:13.549Z,34.90
2022-08-08T21:13:41.769Z,35.00
2022-08-08T21:16:20.255Z,35.40
2022-08-08T21:18:57.289Z,35.30
2022-08-08T21:21:39.737Z,35.50
2022-08-08T21:24:19.219Z,35.60
2022-08-08T21:26:54.126Z,35.50
2022-08-08T21:29:21.679Z,35.30
2022-08-08T21:32:14.352Z,35.50
2022-08-08T21:34:49.512Z,35.70
2022-08-08T21:37:19.154Z,35.70
2022-08-08T21:39:56.956Z,35.90
2022-08-08T21:42:24.104Z,36.00
2022-08-08T21:44:58.768Z,36.00
2022-08-08T21:48:04.552Z,36.10
2022-08-08T21:50:14.745Z,36.00
2022-08-08T21:54:35.966Z,36.10
2022-08-08T21:56:19.531Z,36.30
2022-08-08T21:58:17.331Z,36.40
2022-08-08T22:00:44.193Z,36.30
2022-08-08T22:03:11.311Z,36.00
2022-08-08T22:05:44.415Z,35.90
2022-08-08T22:08:11.588Z,35.90
2022-08-08T22:10:41.704Z,35.90
2022-08-08T22:13:17.152Z,35.90
2022-08-08T22:16:00.462Z,36.30
2022-08-08T22:18:29.856Z,36.80
2022-08-08T22:21:01.441Z,36.30
2022-08-08T22:23:38.307Z,36.60
2022-08-08T22:26:28.076Z,36.30
2022-08-08T22:29:04.626Z,36.60
2022-08-08T22:31:43.492Z,36.90
2022-08-08T22:34:26.988Z,37.00
2022-08-08T22:36:54.097Z,37.10
2022-08-08T22:39:20.951Z,37.10
2022-08-08T22:41:49.327Z,37.50
2022-08-08T22:44:16.951Z,37.30
2022-08-08T22:46:45.752Z,37.50
2022-08-08T22:49:17.930Z,37.70
2022-08-08T22:51:47.300Z,37.40
2022-08-08T22:54:32.896Z,37.20
2022-08-08T22:57:11.641Z,37.60
2022-08-08T22:59:52.780Z,37.70
2022-08-08T23:02:28.560Z,37.90
2022-08-08T23:04:58.559Z,38.00
2022-08-08T23:07:51.067Z,38.30
2022-08-08T23:10:21.329Z,38.40
2022-08-08T23:12:52.206Z,38.40
2022-08-08T23:16:37.965Z,38.20
2022-08-08T23:18:11.843Z,38.50
2022-08-08T23:20:43.515Z,38.50
2022-08-08T23:23:12.069Z,38.60
2022-08-08T23:25:48.035Z,38.60
2022-08-08T23:28:17.655Z,38.60
2022-08-08T23:30:46.235Z,38.30
2022-08-08T23:33:13.605Z,38.60
2022-08-08T23:36:06.828Z,38.60
2022-08-08T23:38:33.391Z,38.50
2022-08-08T23:41:00.251Z,38.40
2022-08-08T23:43:31.900Z,38.80
2022-08-08T23:49:05.329Z,39.60
2022-08-08T23:49:18.464Z,38.80
2022-08-08T23:52:04.778Z,39.10
2022-08-08T23:54:42.970Z,38.70
2022-08-08T23:57:27.458Z,38.70
